createdAt,value
2022-09-22T00:02:47.351Z,7.78
2022-09-22T00:05:49.126Z,7.72
2022-09-22T00:08:55.019Z,7.78
2022-09-22T00:11:58.179Z,7.80
2022-09-22T00:15:00.028Z,7.82
2022-09-22T00:18:04.169Z,7.79
2022-09-22T00:21:18.765Z,7.76
2022-09-22T00:24:25.197Z,7.66
2022-09-22T00:27:27.316Z,7.60
2022-09-22T00:30:32.130Z,7.64
2022-09-22T00:33:34.696Z,7.58
2022-09-22T00:36:36.467Z,7.55
2022-09-22T00:39:38.626Z,7.53
2022-09-22T00:42:40.532Z,7.50
2022-09-22T00:45:43.915Z,7.44
2022-09-22T00:48:53.171Z,7.43
2022-09-22T00:51:55.673Z,7.51
2022-09-22T00:55:00.208Z,7.50
2022-09-22T00:58:03.621Z,7.45
2022-09-22T01:01:08.144Z,7.39
2022-09-22T01:04:10.430Z,7.39
2022-09-22T01:07:12.658Z,7.40
2022-09-22T01:10:15.461Z,7.38
2022-09-22T01:13:17.716Z,7.40
2022-09-22T01:16:41.214Z,7.40
2022-09-22T01:20:14.990Z,7.34
2022-09-22T01:23:24.615Z,7.39
2022-09-22T01:26:45.210Z,7.28
2022-09-22T01:30:15.344Z,7.32
2022-09-22T01:33:20.616Z,7.34
2022-09-22T01:36:26.148Z,7.36
2022-09-22T01:39:34.776Z,7.42
2022-09-22T01:42:44.264Z,7.44
2022-09-22T01:45:48.487Z,7.50
2022-09-22T01:48:51.671Z,7.48
2022-09-22T01:51:59.607Z,7.55
2022-09-22T01:55:04.163Z,7.54
2022-09-22T01:58:19.274Z,7.52
2022-09-22T02:01:26.234Z,7.40
2022-09-22T02:04:42.082Z,7.25
2022-09-22T02:07:46.657Z,7.30
2022-09-22T02:10:48.909Z,7.31
2022-09-22T02:13:51.430Z,7.42
2022-09-22T02:16:54.003Z,7.46
2022-09-22T02:19:56.324Z,7.45
2022-09-22T02:22:58.124Z,7.54
2022-09-22T02:26:03.930Z,7.62
2022-09-22T02:29:11.877Z,7.56
2022-09-22T02:32:17.719Z,7.58
2022-09-22T02:35:22.272Z,7.53
2022-09-22T02:38:31.219Z,7.41
2022-09-22T02:41:39.583Z,7.33
2022-09-22T02:44:47.903Z,7.32
2022-09-22T02:47:53.878Z,7.35
2022-09-22T02:50:56.081Z,7.33
2022-09-22T02:53:58.604Z,7.25
2022-09-22T02:57:01.068Z,7.20
2022-09-22T03:00:05.390Z,7.16
2022-09-22T03:03:07.418Z,7.16
2022-09-22T03:06:09.148Z,7.13
2022-09-22T03:09:11.797Z,7.14
2022-09-22T03:12:14.829Z,7.11
2022-09-22T03:15:16.874Z,7.03
2022-09-22T03:18:21.048Z,7.14
2022-09-22T03:21:22.941Z,7.16
2022-09-22T03:24:26.193Z,7.10
2022-09-22T03:27:28.328Z,7.00
2022-09-22T03:30:32.136Z,7.01
2022-09-22T03:33:35.366Z,7.05
2022-09-22T03:36:37.496Z,7.12
2022-09-22T03:39:39.845Z,7.16
2022-09-22T03:42:41.595Z,7.23
2022-09-22T03:45:44.842Z,7.28
2022-09-22T03:48:46.993Z,7.17
2022-09-22T03:51:51.336Z,7.14
2022-09-22T03:54:55.747Z,7.16
2022-09-22T03:57:57.412Z,7.04
2022-09-22T04:00:59.463Z,7.06
2022-09-22T04:04:01.483Z,7.14
2022-09-22T04:07:07.111Z,7.09
2022-09-22T04:10:09.465Z,7.08
2022-09-22T04:13:11.862Z,7.13
2022-09-22T04:16:13.772Z,7.11
2022-09-22T04:19:15.620Z,7.14
2022-09-22T04:22:17.351Z,7.10
2022-09-22T04:25:19.198Z,7.11
2022-09-22T04:28:20.921Z,7.08
2022-09-22T04:31:23.262Z,7.17
2022-09-22T04:34:25.249Z,7.17
2022-09-22T04:37:27.245Z,7.16
2022-09-22T04:40:30.089Z,7.15
2022-09-22T04:43:32.237Z,7.12
2022-09-22T04:46:34.201Z,7.14
2022-09-22T04:49:36.069Z,7.11
2022-09-22T04:52:38.046Z,7.16
2022-09-22T04:55:39.848Z,7.20
2022-09-22T04:58:41.691Z,7.22
2022-09-22T05:01:43.834Z,7.35
2022-09-22T05:04:45.803Z,7.45
2022-09-22T05:07:53.914Z,7.53
2022-09-22T05:10:56.974Z,7.64
2022-09-22T05:13:58.872Z,7.72
2022-09-22T05:17:00.795Z,7.74
2022-09-22T05:20:06.688Z,7.81
2022-09-22T05:23:08.427Z,7.82
2022-09-22T05:26:10.326Z,7.98
2022-09-22T05:29:12.261Z,7.98
2022-09-22T05:32:14.022Z,8.18
2022-09-22T05:35:18.980Z,8.26
2022-09-22T05:38:21.389Z,8.41
2022-09-22T05:41:23.439Z,8.61
2022-09-22T05:44:25.535Z,8.74
2022-09-22T05:47:27.451Z,9.05
2022-09-22T05:50:29.338Z,9.18
2022-09-22T05:53:31.097Z,9.40
2022-09-22T05:56:33.090Z,9.48
2022-09-22T05:59:34.999Z,9.31
2022-09-22T06:02:36.932Z,9.42
2022-09-22T06:05:39.677Z,9.40
2022-09-22T06:08:45.124Z,9.53
2022-09-22T06:11:50.265Z,9.57
2022-09-22T06:14:52.070Z,9.68
2022-09-22T06:17:53.955Z,9.45
2022-09-22T06:20:58.695Z,9.55
2022-09-22T06:24:00.975Z,9.84
2022-09-22T06:27:02.831Z,9.88
2022-09-22T06:30:05.179Z,9.89
2022-09-22T06:33:08.674Z,9.95
2022-09-22T06:36:10.804Z,10.08
2022-09-22T06:39:13.320Z,10.00
2022-09-22T06:42:17.132Z,10.06
2022-09-22T06:45:19.089Z,10.15
2022-09-22T06:48:24.297Z,10.34
2022-09-22T06:51:34.000Z,10.61
2022-09-22T06:54:40.781Z,10.76
2022-09-22T06:57:42.855Z,11.16
2022-09-22T07:00:45.031Z,11.20
2022-09-22T07:03:47.123Z,11.41
2022-09-22T07:06:50.602Z,11.46
2022-09-22T07:09:52.573Z,11.47
2022-09-22T07:12:54.527Z,11.68
2022-09-22T07:16:04.561Z,11.63
2022-09-22T07:19:07.051Z,11.59
2022-09-22T07:22:09.532Z,11.71
2022-09-22T07:25:12.341Z,11.48
2022-09-22T07:28:15.110Z,11.86
2022-09-22T07:31:17.642Z,11.88
2022-09-22T07:34:19.342Z,11.83
2022-09-22T07:37:21.196Z,11.91
2022-09-22T07:40:23.358Z,11.80
2022-09-22T07:43:25.150Z,11.94
2022-09-22T07:46:26.910Z,12.22
2022-09-22T07:49:28.802Z,12.19
2022-09-22T07:52:31.295Z,12.34
2022-09-22T07:55:36.809Z,12.59
2022-09-22T07:58:41.496Z,12.46
2022-09-22T08:01:47.726Z,12.57
2022-09-22T08:04:49.743Z,12.57
2022-09-22T08:07:52.101Z,12.59
2022-09-22T08:10:53.975Z,12.48
2022-09-22T08:13:57.609Z,12.33
2022-09-22T08:16:59.447Z,12.41
2022-09-22T08:20:03.598Z,12.61
2022-09-22T08:23:05.667Z,12.59
2022-09-22T08:26:09.672Z,12.53
2022-09-22T08:29:11.538Z,12.62
2022-09-22T08:32:17.728Z,12.72
2022-09-22T08:35:22.800Z,12.50
2022-09-22T08:38:25.886Z,12.94
2022-09-22T08:41:39.986Z,13.18
2022-09-22T08:44:46.614Z,13.16
2022-09-22T08:48:11.405Z,13.11
2022-09-22T08:51:43.984Z,13.31
2022-09-22T08:54:46.324Z,12.72
2022-09-22T08:57:57.581Z,12.88
2022-09-22T09:01:14.775Z,12.94
2022-09-22T09:05:11.302Z,13.11
2022-09-22T09:08:15.620Z,13.64
2022-09-22T09:11:37.642Z,14.05
2022-09-22T09:15:07.011Z,14.38
2022-09-22T09:18:17.825Z,14.53
2022-09-22T09:21:19.736Z,14.00
2022-09-22T09:28:04.128Z,13.72
2022-09-22T09:31:22.118Z,13.84
2022-09-22T09:34:28.963Z,13.79
2022-09-22T09:37:31.666Z,13.63
2022-09-22T09:40:38.445Z,13.69
2022-09-22T09:43:42.879Z,13.98
2022-09-22T09:46:54.250Z,13.83
2022-09-22T09:49:56.035Z,14.31
2022-09-22T09:53:02.374Z,14.40
2022-09-22T09:56:12.413Z,14.55
2022-09-22T09:59:32.707Z,14.65
2022-09-22T10:02:48.771Z,14.63
2022-09-22T10:06:02.903Z,14.26
2022-09-22T10:09:04.807Z,14.50
2022-09-22T10:12:22.537Z,14.93
2022-09-22T10:15:26.352Z,14.66
2022-09-22T10:18:34.103Z,14.31
2022-09-22T10:21:37.765Z,14.68
2022-09-22T10:24:39.738Z,15.01
2022-09-22T10:27:42.898Z,14.97
2022-09-22T10:30:58.081Z,14.96
2022-09-22T10:34:00.879Z,15.58
2022-09-22T10:37:07.310Z,14.98
2022-09-22T10:40:14.763Z,15.78
2022-09-22T10:43:38.332Z,15.85
2022-09-22T10:46:50.071Z,15.95
2022-09-22T10:50:29.064Z,15.03
2022-09-22T10:53:49.942Z,14.71
2022-09-22T10:56:55.023Z,13.75
2022-09-22T11:00:29.131Z,13.19
2022-09-22T11:04:30.864Z,12.19
2022-09-22T11:08:06.481Z,11.55
2022-09-22T11:11:37.244Z,11.37
2022-09-22T11:14:56.653Z,11.18
2022-09-22T11:18:13.529Z,11.15
2022-09-22T11:21:35.515Z,11.24
2022-09-22T11:24:58.991Z,11.58
2022-09-22T11:28:39.529Z,11.64
2022-09-22T11:31:44.076Z,11.68
2022-09-22T11:34:49.662Z,11.73
2022-09-22T11:38:11.554Z,12.21
2022-09-22T11:41:20.561Z,12.57
2022-09-22T11:44:43.909Z,13.63
2022-09-22T11:48:12.751Z,13.86
2022-09-22T11:51:21.663Z,14.09
2022-09-22T11:54:54.412Z,14.14
2022-09-22T11:57:59.854Z,14.36
2022-09-22T12:01:18.355Z,15.08
2022-09-22T12:04:40.295Z,15.07
2022-09-22T12:07:49.323Z,15.14
2022-09-22T12:10:52.130Z,15.58
2022-09-22T12:13:56.033Z,15.05
2022-09-22T12:17:01.558Z,15.32
2022-09-22T12:20:12.904Z,15.78
2022-09-22T12:23:51.706Z,16.01
2022-09-22T12:26:53.956Z,15.38
2022-09-22T12:29:57.400Z,15.06
2022-09-22T12:32:59.133Z,14.94
2022-09-22T12:36:02.366Z,15.46
2022-09-22T12:39:22.589Z,15.00
2022-09-22T12:42:35.270Z,15.07
2022-09-22T12:45:38.394Z,14.72
2022-09-22T12:48:44.837Z,15.21
2022-09-22T12:51:46.903Z,15.22
2022-09-22T12:54:48.771Z,15.16
2022-09-22T12:57:51.722Z,14.98
2022-09-22T13:01:17.475Z,14.44
2022-09-22T13:04:19.456Z,14.17
2022-09-22T13:07:34.065Z,14.52
2022-09-22T13:10:36.082Z,15.34
2022-09-22T13:13:42.794Z,15.09
2022-09-22T13:16:46.885Z,15.52
2022-09-22T13:19:57.960Z,15.51
2022-09-22T13:23:14.190Z,15.41
2022-09-22T13:26:19.153Z,15.26
2022-09-22T13:29:21.777Z,15.18
2022-09-22T13:32:28.446Z,15.18
2022-09-22T13:35:39.317Z,15.20
2022-09-22T13:38:54.375Z,15.28
2022-09-22T13:42:04.274Z,15.43
2022-09-22T13:45:10.620Z,15.39
2022-09-22T13:48:15.285Z,15.62
2022-09-22T13:51:17.758Z,15.66
2022-09-22T13:54:23.364Z,15.39
2022-09-22T13:57:33.703Z,15.74
2022-09-22T14:01:11.567Z,15.46
2022-09-22T14:04:25.025Z,15.54
2022-09-22T14:07:31.420Z,15.84
2022-09-22T14:10:34.929Z,15.65
2022-09-22T14:13:36.890Z,15.17
2022-09-22T14:16:43.056Z,14.88
2022-09-22T14:19:51.802Z,15.07
2022-09-22T14:22:54.746Z,15.06
2022-09-22T14:25:58.534Z,15.32
2022-09-22T14:29:15.764Z,15.43
2022-09-22T14:32:32.084Z,15.33
2022-09-22T14:35:39.094Z,15.37
2022-09-22T14:38:46.699Z,15.23
2022-09-22T14:41:59.402Z,15.31
2022-09-22T14:45:12.167Z,15.19
2022-09-22T14:48:21.390Z,15.37
2022-09-22T14:51:25.057Z,15.19
2022-09-22T14:54:31.229Z,15.01
2022-09-22T14:57:34.407Z,14.93
2022-09-22T15:00:55.932Z,14.90
2022-09-22T15:04:03.302Z,15.02
2022-09-22T15:07:08.936Z,14.98
2022-09-22T15:10:25.852Z,14.62
2022-09-22T15:13:31.967Z,14.25
2022-09-22T15:16:34.025Z,14.37
2022-09-22T15:19:38.014Z,14.19
2022-09-22T15:22:40.145Z,14.07
2022-09-22T15:25:44.668Z,14.23
2022-09-22T15:28:48.171Z,14.34
2022-09-22T15:31:50.980Z,14.28
2022-09-22T15:34:55.210Z,14.24
2022-09-22T15:37:57.537Z,14.34
2022-09-22T15:41:00.217Z,14.49
2022-09-22T15:44:03.311Z,14.00
2022-09-22T15:47:06.548Z,13.81
2022-09-22T15:50:18.497Z,13.45
2022-09-22T15:53:20.591Z,13.25
2022-09-22T15:56:24.454Z,13.16
2022-09-22T15:59:28.725Z,12.91
2022-09-22T16:02:32.960Z,12.59
2022-09-22T16:05:36.365Z,12.82
2022-09-22T16:08:46.823Z,12.74
2022-09-22T16:11:49.958Z,12.70
2022-09-22T16:14:52.775Z,12.55
2022-09-22T16:17:54.748Z,12.38
2022-09-22T16:21:33.315Z,12.24
2022-09-22T16:24:35.245Z,12.29
2022-09-22T16:27:39.216Z,12.28
2022-09-22T16:30:41.662Z,12.18
2022-09-22T16:33:45.420Z,12.01
2022-09-22T16:36:47.687Z,11.84
2022-09-22T16:39:50.222Z,11.81
2022-09-22T16:42:53.195Z,11.79
2022-09-22T16:46:14.045Z,11.63
2022-09-22T16:49:17.696Z,11.53
2022-09-22T16:52:20.406Z,11.44
2022-09-22T16:55:22.882Z,11.37
2022-09-22T16:58:24.900Z,11.18
2022-09-22T17:01:27.785Z,11.04
2022-09-22T17:04:32.397Z,10.96
2022-09-22T17:07:34.486Z,10.83
2022-09-22T17:10:36.549Z,10.48
2022-09-22T17:13:38.745Z,10.34
2022-09-22T17:16:43.174Z,10.05
2022-09-22T17:19:48.715Z,10.01
2022-09-22T17:22:52.135Z,9.95
2022-09-22T17:25:54.375Z,9.85
2022-09-22T17:29:01.194Z,9.79
2022-09-22T17:32:06.125Z,9.61
2022-09-22T17:35:11.985Z,9.50
2022-09-22T17:38:14.175Z,9.42
2022-09-22T17:41:19.833Z,9.26
2022-09-22T17:44:28.054Z,9.24
2022-09-22T17:47:48.797Z,9.11
2022-09-22T17:51:09.848Z,9.03
2022-09-22T17:54:44.736Z,8.94
2022-09-22T17:57:46.971Z,8.97
2022-09-22T18:00:49.908Z,8.89
2022-09-22T18:03:52.805Z,8.82
2022-09-22T18:06:54.928Z,8.68
2022-09-22T18:09:57.233Z,8.75
2022-09-22T18:13:00.721Z,8.73
2022-09-22T18:16:25.458Z,8.69
2022-09-22T18:19:29.370Z,8.67
2022-09-22T18:22:31.956Z,8.55
2022-09-22T18:25:34.228Z,8.55
2022-09-22T18:28:37.121Z,8.61
2022-09-22T18:31:40.006Z,8.37
2022-09-22T18:34:42.299Z,8.48
2022-09-22T18:37:47.968Z,8.75
2022-09-22T18:40:51.374Z,8.80
2022-09-22T18:43:54.065Z,8.93
2022-09-22T18:46:56.733Z,8.80
2022-09-22T18:50:00.078Z,8.86
2022-09-22T18:53:02.329Z,9.23
2022-09-22T18:56:11.368Z,9.17
2022-09-22T18:59:23.645Z,9.34
2022-09-22T19:02:25.991Z,9.42
2022-09-22T19:05:28.908Z,9.67
2022-09-22T19:08:31.055Z,9.86
2022-09-22T19:11:35.646Z,9.90
2022-09-22T19:14:39.977Z,9.83
2022-09-22T19:17:50.082Z,9.77
2022-09-22T19:20:51.989Z,9.73
2022-09-22T19:23:54.647Z,9.69
2022-09-22T19:26:57.044Z,9.60
2022-09-22T19:29:59.830Z,9.68
2022-09-22T19:33:02.121Z,9.48
2022-09-22T19:36:04.530Z,9.50
2022-09-22T19:39:08.636Z,9.43
2022-09-22T19:42:10.658Z,9.38
2022-09-22T19:45:13.728Z,9.34
2022-09-22T19:48:16.277Z,9.31
2022-09-22T19:51:18.673Z,9.37
2022-09-22T19:54:21.284Z,9.29
2022-09-22T19:57:23.408Z,9.25
2022-09-22T20:00:28.779Z,9.16
2022-09-22T20:03:30.713Z,9.10
2022-09-22T20:06:34.694Z,9.05
2022-09-22T20:09:36.948Z,8.93
2022-09-22T20:12:39.982Z,8.77
2022-09-22T20:15:42.380Z,8.65
2022-09-22T20:18:44.359Z,8.42
2022-09-22T20:21:47.653Z,8.44
2022-09-22T20:24:55.339Z,8.56
2022-09-22T20:27:57.780Z,8.59
2022-09-22T20:30:59.658Z,8.46
2022-09-22T20:34:02.554Z,8.52
2022-09-22T20:37:04.819Z,8.52
2022-09-22T20:40:20.565Z,8.56
2022-09-22T20:43:23.780Z,8.64
2022-09-22T20:46:26.260Z,8.66
2022-09-22T20:49:29.263Z,8.49
2022-09-22T20:52:31.547Z,8.44
2022-09-22T20:55:33.753Z,8.49
2022-09-22T20:58:40.485Z,8.49
2022-09-22T21:01:43.241Z,8.48
2022-09-22T21:04:45.426Z,8.45
2022-09-22T21:07:47.328Z,8.31
2022-09-22T21:10:51.227Z,8.11
2022-09-22T21:14:03.238Z,8.06
2022-09-22T21:17:06.895Z,7.98
2022-09-22T21:20:09.755Z,7.78
2022-09-22T21:23:11.935Z,7.75
2022-09-22T21:26:17.211Z,7.62
2022-09-22T21:29:21.375Z,7.48
2022-09-22T21:32:24.406Z,7.41
2022-09-22T21:35:26.472Z,7.35
2022-09-22T21:38:30.075Z,7.28
2022-09-22T21:41:32.657Z,7.24
2022-09-22T21:44:34.479Z,7.16
2022-09-22T21:47:37.575Z,7.15
2022-09-22T21:50:39.350Z,7.09
2022-09-22T21:53:44.632Z,7.13
2022-09-22T21:56:47.047Z,7.11
2022-09-22T21:59:48.863Z,7.10
2022-09-22T22:03:09.899Z,7.19
2022-09-22T22:06:18.885Z,7.15
2022-09-22T22:09:22.749Z,7.18
2022-09-22T22:12:25.518Z,7.14
2022-09-22T22:15:27.640Z,6.99
2022-09-22T22:18:29.948Z,7.02
2022-09-22T22:21:35.314Z,6.92
2022-09-22T22:24:43.207Z,6.88
2022-09-22T22:27:45.994Z,6.87
2022-09-22T22:30:48.425Z,6.81
2022-09-22T22:33:50.800Z,6.70
2022-09-22T22:36:54.405Z,6.67
2022-09-22T22:39:56.798Z,6.79
2022-09-22T22:42:58.709Z,6.86
2022-09-22T22:46:01.867Z,6.89
2022-09-22T22:49:04.116Z,6.95
2022-09-22T22:52:06.106Z,7.02
2022-09-22T22:55:09.582Z,7.00
2022-09-22T22:58:12.835Z,7.11
2022-09-22T23:01:18.648Z,7.11
2022-09-22T23:04:21.364Z,7.16
2022-09-22T23:07:23.793Z,7.17
2022-09-22T23:10:26.069Z,7.17
2022-09-22T23:13:31.950Z,7.18
2022-09-22T23:16:47.084Z,7.22
2022-09-22T23:19:50.535Z,7.28
2022-09-22T23:22:56.220Z,7.34
2022-09-22T23:25:58.520Z,7.38
2022-09-22T23:29:01.619Z,7.38
2022-09-22T23:32:03.985Z,7.44
2022-09-22T23:35:07.292Z,7.46
2022-09-22T23:38:09.413Z,7.40
2022-09-22T23:41:12.813Z,7.41
2022-09-22T23:44:14.880Z,7.41
2022-09-22T23:47:17.139Z,7.42
2022-09-22T23:50:19.377Z,7.36
2022-09-22T23:53:24.784Z,7.36
2022-09-22T23:56:27.920Z,7.37
2022-09-22T23:59:29.704Z,7.28
